Shattuc, Illinois
Current Conditions -  °F | °C
As of 12:35 AM on Tuesday 21 Oct 2014 (Local Time) from KENL Reporting Station
Clear Clear  
Wind Chill: 48°   Ceiling: Unl
Heat Index: 48°   Visibility: 10mi
Dew Point: 43°   Wind: 0mph
Humidity: 82%   Direction: NA
Pressure: 30"   Gusts: NA
Location:  38.61°N, 89.19°W
Report Text: KENL 210535Z AUTO 00000KT 10SM CLR 09/06 A3000 RMK AO2 T00910062
Loading
Personal Weather Stations






























Interactive Weather Map
Tropical Storm Tracking
New forecast layout! Learn more

10-Day Weather Forecast

Advertisements
Track Severe Weather on mobile